»·PEaware :: N777VP KSMO-L52

N777VP :: KSMO-L52

FLIGHT INFORMATION

Flight Status: Arrived
Operator: Privately registered:
United States
More flights under this callsign
Pilot: Ramahan F. (20646)
Aircraft: BEECH AIRCRAFT BONANZA
(BE36)
More flights by this aircraft type
Origin: KSMO Santa Monica Mun
United States
Destination: L52 Oceano Co
United States
More flights between these airports :: More routes between these airports
Route: +DIRECT
File this flight plan on PilotEdge
Remarks:
Altitude:
(Current/Filed)
3,500ft
Speed:
(Current/Filed)
115kts
Departed: 13-Oct-18 10:48 AM
Arrived: 13-Oct-18 11:45 AM
Distance/Time
Traveled:
126nm/0:56
Distance/Time
To Go:
Arrived

Flight Plot

Page will automatically refresh every two minutes.

Flight plan parsing failed; only flown route is shown


Map Options




Map Legend


Flown Route
Filed Route
Departure Airport
Arrival Airport
Navaid (VOR, NDB)
Fix

Horizontal Profiles

Position Reports

Time Latitude Longitude Heading Altitude Ground
Speed
13-Oct-18 10:47 34.018355 -118.446883 315 136ft 0kts
13-Oct-18 10:48 34.018857 -118.446885 338 136ft 0kts
13-Oct-18 10:49 34.018857 -118.446885 338 136ft 0kts
13-Oct-18 10:50 34.007728 -118.460554 221 513ft 109kts
13-Oct-18 10:51 34.005616 -118.496075 297 1620ft 135kts
13-Oct-18 10:52 34.022548 -118.526562 304 2620ft 132kts
13-Oct-18 10:53 34.046795 -118.561331 309 3530ft 144kts
13-Oct-18 10:54 34.083100 -118.557323 350 3835ft 169kts
13-Oct-18 10:55 34.099725 -118.603325 283 3821ft 172kts
13-Oct-18 10:56 34.120554 -118.654357 300 3706ft 178kts
13-Oct-18 10:57 34.146286 -118.704371 301 3761ft 172kts
13-Oct-18 10:58 34.171253 -118.753191 301 3911ft 171kts
13-Oct-18 10:59 34.196215 -118.802080 302 4051ft 172kts
13-Oct-18 11:00 34.213338 -118.835692 302 4145ft 172kts
13-Oct-18 11:01 34.238531 -118.885096 303 4278ft 173kts
13-Oct-18 11:02 34.263781 -118.934698 303 4412ft 173kts
13-Oct-18 11:03 34.288954 -118.984065 304 4545ft 173kts
13-Oct-18 11:04 34.318333 -119.041490 304 4698ft 172kts
13-Oct-18 11:05 34.339146 -119.082536 304 4804ft 171kts
13-Oct-18 11:06 34.364009 -119.131671 304 4929ft 171kts
13-Oct-18 11:07 34.388828 -119.180725 304 5045ft 168kts
13-Oct-18 11:08 34.413099 -119.228705 304 5133ft 167kts
13-Oct-18 11:09 34.437257 -119.276649 304 5215ft 166kts
13-Oct-18 11:10 34.461347 -119.324505 304 5296ft 166kts
13-Oct-18 11:11 34.485509 -119.372572 304 5343ft 168kts
13-Oct-18 11:12 34.509642 -119.420702 304 5432ft 166kts
13-Oct-18 11:13 34.533405 -119.468059 304 5539ft 161kts
13-Oct-18 11:14 34.556427 -119.514090 305 5708ft 164kts
13-Oct-18 11:15 34.579873 -119.561001 304 5735ft 168kts
13-Oct-18 11:16 34.604079 -119.609472 304 5734ft 169kts
13-Oct-18 11:17 34.624914 -119.651618 306 6712ft 130kts
13-Oct-18 11:18 34.643117 -119.688178 307 7519ft 130kts
13-Oct-18 11:19 34.664655 -119.731077 306 7537ft 160kts
13-Oct-18 11:20 34.688203 -119.778493 306 7534ft 166kts
13-Oct-18 11:21 34.711967 -119.826385 305 7540ft 165kts
13-Oct-18 11:22 34.739451 -119.881842 305 7533ft 162kts
13-Oct-18 11:23 34.758745 -119.920820 304 7533ft 160kts
13-Oct-18 11:24 34.785342 -119.974638 304 7533ft 158kts
13-Oct-18 11:25 34.807791 -120.020117 303 7533ft 157kts
13-Oct-18 11:26 34.830271 -120.065722 303 7533ft 156kts
13-Oct-18 11:27 34.848808 -120.103375 302 7533ft 156kts
13-Oct-18 11:28 34.871079 -120.148562 301 7533ft 155kts
13-Oct-18 11:29 34.893272 -120.193922 300 7533ft 156kts
13-Oct-18 11:30 34.916595 -120.241280 304 7540ft 176kts
13-Oct-18 11:31 34.942401 -120.294251 303 7512ft 180kts
13-Oct-18 11:32 34.963427 -120.338706 298 7112ft 123kts
13-Oct-18 11:33 34.979662 -120.371832 297 6496ft 112kts
13-Oct-18 11:34 34.995649 -120.404740 297 5863ft 114kts
13-Oct-18 11:35 35.010123 -120.434249 296 5322ft 91kts
13-Oct-18 11:36 35.022983 -120.460890 296 4667ft 91kts
13-Oct-18 11:37 35.036050 -120.487916 296 4033ft 95kts
13-Oct-18 11:38 35.049690 -120.515856 297 3477ft 96kts
13-Oct-18 11:39 35.063261 -120.543725 297 2921ft 92kts
13-Oct-18 11:40 35.077817 -120.574445 309 1592ft 121kts
13-Oct-18 11:41 35.076203 -120.572512 276 1051ft 95kts
13-Oct-18 11:42 35.088748 -120.597983 303 543ft 86kts
13-Oct-18 11:43 35.100321 -120.619729 305 63ft 67kts
13-Oct-18 11:44 35.115812 -120.623501 90 784ft 84kts
13-Oct-18 11:45 35.103314 -120.597154 162 1080ft 91kts
13-Oct-18 11:46 35.097907 -120.615548 300 172ft 84kts
13-Oct-18 11:47 35.102793 -120.623760 35 17ft 0kts
13-Oct-18 11:48 35.102793 -120.623760 35 17ft 0kts

Navigation Log

Ident Type
Flight plan parsing failed, navigation log unavailable